createdAt,value
2023-04-26T00:00:30.403Z,84.50
2023-04-26T00:01:34.556Z,84.62
2023-04-26T00:02:39.053Z,84.63
2023-04-26T00:03:43.310Z,84.67
2023-04-26T00:04:47.604Z,84.75
2023-04-26T00:05:51.676Z,84.87
2023-04-26T00:06:55.821Z,84.92
2023-04-26T00:08:00.036Z,84.97
2023-04-26T00:09:04.262Z,85.02
2023-04-26T00:10:08.630Z,85.06
2023-04-26T00:11:12.765Z,85.06
2023-04-26T00:12:16.994Z,85.07
2023-04-26T00:13:21.170Z,85.01
2023-04-26T00:14:25.397Z,85.00
2023-04-26T00:15:29.642Z,85.01
2023-04-26T00:16:33.858Z,85.08
2023-04-26T00:17:38.096Z,85.14
2023-04-26T00:18:42.387Z,85.19
2023-04-26T00:19:46.488Z,85.24
2023-04-26T00:21:04.845Z,85.19
2023-04-26T00:22:08.190Z,85.26
2023-04-26T00:23:12.391Z,85.29
2023-04-26T00:24:16.629Z,85.22
2023-04-26T00:25:20.866Z,85.23
2023-04-26T00:26:25.061Z,85.23
2023-04-26T00:27:29.371Z,85.17
2023-04-26T00:28:33.583Z,85.22
2023-04-26T00:29:37.786Z,85.27
2023-04-26T00:30:42.055Z,85.25
2023-04-26T00:32:00.311Z,85.38
2023-04-26T00:33:03.495Z,85.43
2023-04-26T00:34:07.580Z,85.53
2023-04-26T00:35:11.840Z,85.55
2023-04-26T00:36:16.020Z,85.58
2023-04-26T00:37:20.301Z,85.58
2023-04-26T00:38:30.601Z,85.53
2023-04-26T00:39:33.392Z,85.53
2023-04-26T00:40:37.676Z,85.52
2023-04-26T00:41:41.808Z,85.50
2023-04-26T00:42:46.128Z,85.48
2023-04-26T00:43:50.387Z,85.48
2023-04-26T00:44:54.588Z,85.54
2023-04-26T00:45:58.847Z,85.58
2023-04-26T00:47:03.124Z,85.69
2023-04-26T00:48:07.254Z,85.78
2023-04-26T00:49:11.463Z,85.81
2023-04-26T00:50:15.656Z,85.71
2023-04-26T00:51:19.909Z,85.72
2023-04-26T00:52:24.122Z,85.71
2023-04-26T00:53:28.378Z,85.73
2023-04-26T00:54:32.646Z,85.78
2023-04-26T00:55:36.909Z,85.77
2023-04-26T00:56:41.016Z,85.76
2023-04-26T00:57:45.218Z,85.77
2023-04-26T00:58:49.745Z,85.76
2023-04-26T00:59:53.710Z,85.70
2023-04-26T01:00:57.947Z,85.73
2023-04-26T01:02:08.266Z,85.65
2023-04-26T01:03:11.145Z,85.63
2023-04-26T01:04:15.502Z,85.60
2023-04-26T01:05:19.476Z,85.61
2023-04-26T01:06:23.666Z,85.60
2023-04-26T01:07:27.896Z,85.55
2023-04-26T01:08:32.142Z,85.53
2023-04-26T01:09:36.403Z,85.50
2023-04-26T01:10:40.583Z,85.49
2023-04-26T01:11:44.974Z,85.49
2023-04-26T01:12:49.213Z,85.51
2023-04-26T01:13:53.380Z,85.54
2023-04-26T01:14:57.669Z,85.51
2023-04-26T01:16:01.837Z,85.50
2023-04-26T01:17:06.120Z,85.50
2023-04-26T01:18:10.346Z,85.60
2023-04-26T01:19:14.516Z,85.57
2023-04-26T01:20:18.760Z,85.66
2023-04-26T01:21:22.974Z,85.73
2023-04-26T01:22:27.157Z,85.83
2023-04-26T01:23:31.344Z,85.87
2023-04-26T01:24:35.557Z,85.87
2023-04-26T01:25:39.854Z,85.93
2023-04-26T01:26:44.053Z,85.95
2023-04-26T01:27:48.305Z,85.98
2023-04-26T01:28:52.958Z,86.03
2023-04-26T01:29:56.778Z,85.99
2023-04-26T01:31:01.044Z,86.15
2023-04-26T01:32:05.288Z,86.20
2023-04-26T01:33:09.531Z,86.21
2023-04-26T01:34:13.754Z,86.28
2023-04-26T01:35:17.953Z,86.34
2023-04-26T01:36:22.283Z,86.32
2023-04-26T01:37:26.525Z,86.32
2023-04-26T01:38:30.779Z,86.36
2023-04-26T01:39:35.024Z,86.38
2023-04-26T01:40:39.211Z,86.40
2023-04-26T01:41:43.551Z,86.45
2023-04-26T01:42:47.803Z,86.37
2023-04-26T01:43:52.031Z,86.38
2023-04-26T01:44:56.239Z,86.40
2023-04-26T01:46:00.565Z,86.40
2023-04-26T01:47:04.700Z,86.42
2023-04-26T01:48:09.044Z,86.44
2023-04-26T01:49:13.195Z,86.47
2023-04-26T01:50:17.388Z,86.48
2023-04-26T01:51:21.655Z,86.39
2023-04-26T01:52:25.964Z,86.35
2023-04-26T01:53:30.219Z,86.33
2023-04-26T01:54:34.448Z,86.33
2023-04-26T01:55:38.560Z,86.28
2023-04-26T01:56:42.837Z,86.29
2023-04-26T01:57:47.130Z,86.35
2023-04-26T01:58:51.675Z,86.43
2023-04-26T01:59:55.524Z,86.46
2023-04-26T02:00:59.763Z,86.53
2023-04-26T02:02:04.072Z,86.56
2023-04-26T02:03:08.316Z,86.60
2023-04-26T02:04:12.455Z,86.63
2023-04-26T02:05:16.769Z,86.67
2023-04-26T02:06:20.933Z,86.61
2023-04-26T02:07:31.230Z,86.59
2023-04-26T02:08:33.984Z,86.59
2023-04-26T02:09:38.374Z,86.66
2023-04-26T02:10:42.556Z,86.66
2023-04-26T02:11:46.761Z,86.70
2023-04-26T02:13:05.111Z,86.61
2023-04-26T02:14:22.296Z,86.63
2023-04-26T02:15:25.246Z,86.63
2023-04-26T02:16:29.581Z,86.62
2023-04-26T02:17:33.648Z,86.65
2023-04-26T02:18:37.753Z,86.79
2023-04-26T02:19:41.964Z,86.85
2023-04-26T02:20:46.204Z,86.85
2023-04-26T02:21:50.424Z,86.83
2023-04-26T02:22:54.641Z,86.87
2023-04-26T02:23:58.898Z,86.90
2023-04-26T02:25:03.137Z,86.91
2023-04-26T02:26:07.294Z,87.06
2023-04-26T02:27:11.581Z,87.08
2023-04-26T02:28:15.749Z,87.13
2023-04-26T02:29:24.633Z,87.14
2023-04-26T02:30:24.212Z,87.14
2023-04-26T02:31:28.481Z,87.11
2023-04-26T02:32:32.681Z,87.12
2023-04-26T02:33:36.894Z,87.08
2023-04-26T02:34:41.137Z,87.04
2023-04-26T02:35:45.363Z,87.02
2023-04-26T02:36:49.608Z,86.96
2023-04-26T02:37:53.901Z,86.95
2023-04-26T02:38:58.138Z,86.90
2023-04-26T02:40:02.425Z,86.87
2023-04-26T02:41:06.696Z,86.83
2023-04-26T02:42:10.963Z,86.78
2023-04-26T02:43:15.124Z,86.87
2023-04-26T02:44:19.314Z,86.89
2023-04-26T02:45:23.541Z,86.92
2023-04-26T02:46:27.950Z,86.92
2023-04-26T02:47:32.079Z,86.96
2023-04-26T02:48:36.322Z,87.04
2023-04-26T02:49:40.593Z,87.02
2023-04-26T02:50:44.748Z,87.03
2023-04-26T02:51:49.037Z,87.04
2023-04-26T02:52:53.267Z,87.06
2023-04-26T02:53:57.579Z,87.13
2023-04-26T02:55:01.837Z,87.09
2023-04-26T02:56:05.971Z,87.12
2023-04-26T02:57:10.140Z,87.13
2023-04-26T02:58:14.442Z,87.12
2023-04-26T02:59:18.702Z,87.10
2023-04-26T03:00:22.854Z,87.15
2023-04-26T03:01:27.111Z,87.17
2023-04-26T03:02:31.430Z,87.15
2023-04-26T03:03:35.642Z,87.13
2023-04-26T03:04:39.673Z,87.14
2023-04-26T03:05:44.824Z,87.16
2023-04-26T03:06:48.758Z,87.23
2023-04-26T03:07:52.922Z,87.25
2023-04-26T03:08:57.131Z,87.22
2023-04-26T03:10:01.403Z,87.21
2023-04-26T03:11:05.694Z,87.26
2023-04-26T03:13:36.922Z,87.33
2023-04-26T03:14:41.175Z,87.42
2023-04-26T03:15:45.414Z,87.48
2023-04-26T03:17:03.694Z,87.54
2023-04-26T03:18:06.599Z,87.54
2023-04-26T03:19:10.666Z,87.64
2023-04-26T03:20:15.007Z,87.59
2023-04-26T03:21:19.266Z,87.70
2023-04-26T03:22:23.416Z,87.71
2023-04-26T03:23:27.624Z,87.77
2023-04-26T03:24:31.957Z,87.77
2023-04-26T03:25:36.123Z,87.81
2023-04-26T03:26:40.492Z,87.82
2023-04-26T03:27:44.618Z,87.88
2023-04-26T03:28:48.913Z,87.92
2023-04-26T03:29:54.143Z,87.92
2023-04-26T03:30:58.023Z,87.97
2023-04-26T03:32:02.350Z,88.03
2023-04-26T03:33:06.500Z,87.96
2023-04-26T03:34:10.731Z,88.01
2023-04-26T03:35:15.066Z,88.09
2023-04-26T03:36:19.318Z,88.12
2023-04-26T03:37:23.451Z,88.15
2023-04-26T03:38:27.644Z,88.22
2023-04-26T03:39:31.873Z,88.19
2023-04-26T03:40:36.097Z,88.30
2023-04-26T03:41:40.408Z,88.33
2023-04-26T03:42:44.584Z,88.42
2023-04-26T03:43:48.719Z,88.43
2023-04-26T03:44:53.184Z,88.50
2023-04-26T03:45:57.349Z,88.57
2023-04-26T03:47:01.653Z,88.61
2023-04-26T03:48:05.937Z,88.73
2023-04-26T03:49:10.153Z,88.76
2023-04-26T03:50:14.383Z,88.83
2023-04-26T03:51:18.530Z,88.83
2023-04-26T03:52:22.721Z,88.86
2023-04-26T03:53:27.020Z,88.86
2023-04-26T03:54:31.177Z,88.83
2023-04-26T03:55:35.383Z,88.87
2023-04-26T03:56:39.592Z,88.85
2023-04-26T03:57:43.915Z,88.79
2023-04-26T03:58:48.091Z,88.77
2023-04-26T03:59:52.286Z,88.79
2023-04-26T04:00:56.619Z,88.83
2023-04-26T04:02:00.834Z,88.85
2023-04-26T04:03:05.241Z,88.93
2023-04-26T04:04:09.587Z,88.91
2023-04-26T04:05:13.813Z,88.91
2023-04-26T04:06:17.765Z,88.89
2023-04-26T04:07:22.064Z,88.89
2023-04-26T04:08:42.280Z,88.90
2023-04-26T04:09:45.306Z,88.91
2023-04-26T04:11:05.614Z,88.88
2023-04-26T04:12:08.188Z,88.86
2023-04-26T04:13:12.246Z,88.90
2023-04-26T04:14:16.536Z,88.91
2023-04-26T04:15:20.654Z,88.94
2023-04-26T04:16:24.900Z,88.88
2023-04-26T04:17:29.057Z,88.86
2023-04-26T04:18:39.213Z,88.90
2023-04-26T04:19:42.014Z,88.89
2023-04-26T04:20:46.179Z,88.86
2023-04-26T04:21:50.409Z,88.87
2023-04-26T04:22:54.698Z,88.85
2023-04-26T04:23:58.894Z,88.84
2023-04-26T04:25:03.238Z,88.83
2023-04-26T04:26:07.366Z,88.85
2023-04-26T04:27:11.628Z,88.79
2023-04-26T04:28:15.780Z,88.75
2023-04-26T04:29:20.036Z,88.74
2023-04-26T04:30:24.343Z,88.74
2023-04-26T04:31:28.504Z,88.70
2023-04-26T04:32:32.582Z,88.70
2023-04-26T04:33:36.858Z,88.71
2023-04-26T04:34:41.068Z,88.72
2023-04-26T04:35:45.286Z,88.73
2023-04-26T04:36:52.499Z,88.70
2023-04-26T04:37:55.861Z,88.66
2023-04-26T04:39:00.044Z,88.60
2023-04-26T04:40:04.351Z,88.59
2023-04-26T04:41:08.629Z,88.58
2023-04-26T04:42:26.831Z,88.56
2023-04-26T04:43:29.865Z,88.57
2023-04-26T04:44:34.007Z,88.59
2023-04-26T04:45:38.353Z,88.62
2023-04-26T04:46:42.507Z,88.59
2023-04-26T04:47:46.782Z,88.58
2023-04-26T04:48:51.186Z,88.57
2023-04-26T04:49:55.136Z,88.54
2023-04-26T04:50:59.399Z,88.53
2023-04-26T04:52:03.593Z,88.52
2023-04-26T04:53:07.944Z,88.54
2023-04-26T04:54:11.979Z,88.52
2023-04-26T04:55:16.228Z,88.53
2023-04-26T04:56:20.499Z,88.54
2023-04-26T04:57:24.654Z,88.53
2023-04-26T04:58:28.940Z,88.52
2023-04-26T04:59:33.194Z,88.52
2023-04-26T05:00:37.399Z,88.51
2023-04-26T05:01:41.565Z,88.54
2023-04-26T05:02:45.907Z,88.55
2023-04-26T05:03:50.273Z,88.55
2023-04-26T05:04:54.454Z,88.51
2023-04-26T05:05:58.620Z,88.52
2023-04-26T05:07:02.798Z,88.49
2023-04-26T05:08:07.004Z,88.47
2023-04-26T05:09:11.304Z,88.43
2023-04-26T05:10:15.472Z,88.36
2023-04-26T05:11:19.683Z,88.30
2023-04-26T05:12:23.961Z,88.28
2023-04-26T05:13:28.096Z,88.31
2023-04-26T05:14:32.334Z,88.25
2023-04-26T05:15:36.565Z,88.26
2023-04-26T05:16:40.870Z,88.24
2023-04-26T05:17:45.124Z,88.19
2023-04-26T05:18:49.235Z,88.14
2023-04-26T05:19:53.489Z,88.10
2023-04-26T05:20:57.691Z,88.08
2023-04-26T05:22:01.990Z,88.03
2023-04-26T05:23:06.135Z,88.03
2023-04-26T05:24:10.435Z,88.00
2023-04-26T05:25:14.638Z,87.92
2023-04-26T05:26:18.842Z,87.83
2023-04-26T05:27:23.154Z,87.71
2023-04-26T05:28:27.422Z,87.67
2023-04-26T05:29:31.606Z,87.64
2023-04-26T05:30:35.829Z,87.62
2023-04-26T05:31:40.168Z,87.63
2023-04-26T05:32:44.353Z,87.50
2023-04-26T05:33:48.546Z,87.48
2023-04-26T05:34:52.765Z,87.39
2023-04-26T05:35:56.948Z,87.36
2023-04-26T05:37:01.175Z,87.31
2023-04-26T05:38:05.510Z,87.22
2023-04-26T05:39:09.673Z,87.18
2023-04-26T05:40:13.965Z,87.15
2023-04-26T05:41:18.128Z,87.14
2023-04-26T05:42:22.512Z,87.16
2023-04-26T05:43:26.621Z,87.13
2023-04-26T05:44:30.785Z,87.05
2023-04-26T05:45:35.086Z,87.00
2023-04-26T05:46:39.265Z,86.93
2023-04-26T05:47:43.551Z,86.91
2023-04-26T05:48:47.791Z,86.88
2023-04-26T05:49:51.959Z,86.83
2023-04-26T05:50:56.213Z,86.80
2023-04-26T05:52:00.465Z,86.71
2023-04-26T05:53:04.646Z,86.56
2023-04-26T05:54:08.890Z,86.50
2023-04-26T05:55:13.079Z,86.51
2023-04-26T05:56:17.313Z,86.42
2023-04-26T05:57:21.679Z,86.32
2023-04-26T05:58:39.841Z,86.16
2023-04-26T05:59:42.872Z,85.80
2023-04-26T06:00:47.060Z,85.51
2023-04-26T06:01:51.506Z,85.17
2023-04-26T06:02:55.739Z,84.93
2023-04-26T06:04:01.192Z,84.56
2023-04-26T06:05:04.218Z,84.22
2023-04-26T06:06:08.301Z,84.04
2023-04-26T06:07:12.572Z,83.86
2023-04-26T06:08:16.772Z,83.65
2023-04-26T06:09:21.001Z,83.47
2023-04-26T06:10:25.416Z,83.28
2023-04-26T06:11:29.577Z,83.27
2023-04-26T06:12:33.783Z,83.07
2023-04-26T06:13:38.021Z,82.91
2023-04-26T06:14:42.288Z,82.67
2023-04-26T06:15:46.528Z,82.63
2023-04-26T06:16:50.879Z,82.50
2023-04-26T06:17:55.133Z,82.49
2023-04-26T06:18:59.313Z,82.50
2023-04-26T06:20:03.597Z,82.48
2023-04-26T06:21:07.783Z,82.32
2023-04-26T06:22:12.087Z,82.43
2023-04-26T06:23:16.387Z,82.51
2023-04-26T06:24:20.533Z,82.66
2023-04-26T06:25:24.792Z,82.76
2023-04-26T06:26:29.012Z,82.70
2023-04-26T06:27:33.248Z,82.44
2023-04-26T06:28:37.489Z,82.15
2023-04-26T06:29:41.746Z,81.99
2023-04-26T06:31:00.156Z,81.68
2023-04-26T06:32:03.300Z,81.57
2023-04-26T06:33:07.603Z,81.22
2023-04-26T06:34:11.833Z,81.03
2023-04-26T06:35:16.105Z,80.74
2023-04-26T06:36:20.353Z,80.55
2023-04-26T06:37:24.668Z,80.34
2023-04-26T06:38:28.867Z,80.20
2023-04-26T06:39:33.231Z,80.40
2023-04-26T06:40:37.388Z,80.54
2023-04-26T06:41:41.734Z,80.52
2023-04-26T06:42:46.028Z,80.46
2023-04-26T06:43:50.518Z,80.31
2023-04-26T06:44:54.552Z,80.19
2023-04-26T06:45:58.800Z,80.19
2023-04-26T06:47:02.980Z,80.16
2023-04-26T06:48:07.234Z,80.23
2023-04-26T06:49:11.408Z,80.36
2023-04-26T06:50:15.884Z,80.46
2023-04-26T06:51:20.010Z,80.44
2023-04-26T06:52:24.244Z,80.44
2023-04-26T06:53:28.503Z,80.52
2023-04-26T06:55:37.050Z,80.52
2023-04-26T06:56:41.295Z,80.49
2023-04-26T06:57:45.936Z,80.40
2023-04-26T06:58:49.810Z,80.29
2023-04-26T06:59:54.108Z,80.39
2023-04-26T07:00:58.414Z,80.43
2023-04-26T07:02:02.609Z,80.55
2023-04-26T07:03:07.004Z,80.53
2023-04-26T07:04:11.590Z,80.41
2023-04-26T07:05:15.690Z,80.25
2023-04-26T07:06:22.930Z,80.10
2023-04-26T07:07:26.226Z,80.10
2023-04-26T07:08:30.202Z,80.24
2023-04-26T07:09:34.848Z,80.34
2023-04-26T07:10:39.040Z,80.16
2023-04-26T07:11:43.253Z,80.15
2023-04-26T07:12:47.497Z,80.28
2023-04-26T07:13:52.017Z,80.08
2023-04-26T07:14:56.052Z,80.03
2023-04-26T07:16:00.472Z,79.78
2023-04-26T07:17:07.511Z,79.46
2023-04-26T07:18:10.934Z,79.20
2023-04-26T07:19:18.129Z,79.12
2023-04-26T07:20:21.465Z,79.13
2023-04-26T07:21:25.708Z,79.17
2023-04-26T07:22:29.878Z,79.09
2023-04-26T07:23:34.132Z,79.03
2023-04-26T07:24:38.412Z,78.92
2023-04-26T07:25:45.831Z,78.52
2023-04-26T07:26:49.001Z,78.08
2023-04-26T07:27:53.220Z,78.00
2023-04-26T07:28:58.487Z,77.96
2023-04-26T07:30:02.351Z,77.77
2023-04-26T07:31:08.751Z,77.60
2023-04-26T07:32:10.851Z,77.52
2023-04-26T07:33:15.208Z,77.64
2023-04-26T07:34:19.347Z,77.32
2023-04-26T07:35:23.645Z,77.11
2023-04-26T07:36:27.866Z,76.89
2023-04-26T07:37:32.079Z,76.36
2023-04-26T07:38:36.329Z,75.92
2023-04-26T07:39:40.587Z,75.83
2023-04-26T07:40:44.908Z,75.93
2023-04-26T07:41:49.108Z,76.00
2023-04-26T07:42:54.241Z,75.64
2023-04-26T07:43:58.123Z,75.40
2023-04-26T07:45:02.348Z,75.27
2023-04-26T07:46:06.693Z,74.95
2023-04-26T07:47:10.922Z,74.61
2023-04-26T07:48:15.233Z,73.87
2023-04-26T07:49:19.360Z,73.47
2023-04-26T07:50:23.711Z,73.82
2023-04-26T07:51:28.789Z,74.28
2023-04-26T07:52:32.624Z,74.75
2023-04-26T07:53:36.920Z,74.84
2023-04-26T07:54:42.336Z,74.94
2023-04-26T07:55:47.351Z,74.95
2023-04-26T07:56:51.185Z,74.58
2023-04-26T07:57:55.356Z,73.50
2023-04-26T07:58:59.458Z,73.23
2023-04-26T08:00:03.811Z,73.27
2023-04-26T08:01:08.065Z,73.48
2023-04-26T08:02:41.050Z,73.72
2023-04-26T08:03:29.483Z,73.97
2023-04-26T08:04:33.693Z,74.17
2023-04-26T08:05:38.008Z,74.12
2023-04-26T08:06:41.867Z,74.21
2023-04-26T08:07:49.256Z,74.00
2023-04-26T08:08:52.875Z,73.73
2023-04-26T08:09:56.914Z,73.60
2023-04-26T08:11:01.040Z,73.62
2023-04-26T08:12:05.434Z,73.70
2023-04-26T08:13:09.606Z,73.47
2023-04-26T08:14:13.921Z,73.62
2023-04-26T08:15:18.099Z,73.80
2023-04-26T08:16:22.396Z,73.56
2023-04-26T08:17:29.661Z,73.67
2023-04-26T08:18:33.102Z,73.33
2023-04-26T08:19:37.253Z,73.22
2023-04-26T08:20:41.479Z,72.66
2023-04-26T08:21:45.788Z,71.96
2023-04-26T08:22:50.079Z,71.56
2023-04-26T08:23:54.574Z,71.45
2023-04-26T08:24:58.545Z,71.20
2023-04-26T08:26:02.821Z,70.86
2023-04-26T08:27:07.129Z,70.85
2023-04-26T08:28:11.332Z,70.97
2023-04-26T08:29:15.562Z,70.89
2023-04-26T08:30:19.918Z,71.01
2023-04-26T08:31:24.296Z,71.41
2023-04-26T08:32:28.494Z,71.40
2023-04-26T08:33:32.663Z,71.43
2023-04-26T08:34:37.044Z,71.47
2023-04-26T08:35:41.320Z,71.08
2023-04-26T08:36:45.602Z,70.95
2023-04-26T08:37:49.886Z,70.62
2023-04-26T08:38:54.100Z,70.50
2023-04-26T08:39:58.379Z,70.88
2023-04-26T08:41:02.843Z,71.27
2023-04-26T08:42:06.919Z,71.48
2023-04-26T08:43:11.057Z,71.67
2023-04-26T08:44:15.371Z,71.45
2023-04-26T08:45:19.630Z,71.24
2023-04-26T08:46:23.988Z,71.06
2023-04-26T08:47:28.197Z,71.09
2023-04-26T08:48:32.350Z,71.01
2023-04-26T08:49:36.755Z,70.35
2023-04-26T08:50:40.982Z,70.03
2023-04-26T08:51:48.292Z,70.17
2023-04-26T08:52:51.656Z,70.34
2023-04-26T08:53:55.963Z,70.32
2023-04-26T08:55:00.190Z,70.52
2023-04-26T08:56:04.458Z,70.52
2023-04-26T08:57:08.965Z,70.49
2023-04-26T08:58:13.026Z,70.02
2023-04-26T08:59:17.264Z,69.97
2023-04-26T09:00:21.560Z,69.94
2023-04-26T09:01:25.789Z,69.84
2023-04-26T09:02:36.137Z,69.78
2023-04-26T09:03:39.191Z,69.13
2023-04-26T09:04:43.284Z,68.92
2023-04-26T09:05:47.378Z,68.45
2023-04-26T09:06:51.652Z,68.43
2023-04-26T09:07:55.887Z,68.10
2023-04-26T09:09:00.247Z,67.97
2023-04-26T09:10:04.476Z,68.08
2023-04-26T09:11:08.729Z,68.10
2023-04-26T09:12:13.045Z,68.10
2023-04-26T09:13:17.368Z,68.20
2023-04-26T09:14:21.661Z,68.10
2023-04-26T09:15:26.839Z,68.48
2023-04-26T09:16:30.768Z,68.67
2023-04-26T09:17:35.078Z,68.23
2023-04-26T09:18:39.373Z,67.78
2023-04-26T09:19:43.620Z,67.30
2023-04-26T09:20:47.895Z,67.44
2023-04-26T09:21:52.256Z,67.88
2023-04-26T09:22:56.523Z,67.18
2023-04-26T09:24:00.780Z,65.96
2023-04-26T09:25:05.130Z,66.20
2023-04-26T09:26:09.357Z,66.55
2023-04-26T09:27:13.634Z,67.23
2023-04-26T09:28:17.951Z,67.62
2023-04-26T09:29:22.233Z,67.50
2023-04-26T09:30:26.563Z,66.79
2023-04-26T09:31:30.882Z,66.52
2023-04-26T09:32:35.123Z,67.01
2023-04-26T09:33:39.447Z,67.41
2023-04-26T09:34:43.796Z,67.08
2023-04-26T09:35:48.127Z,66.67
2023-04-26T09:36:52.454Z,66.02
2023-04-26T09:38:00.320Z,66.49
2023-04-26T09:39:00.971Z,66.61
2023-04-26T09:40:05.381Z,66.28
2023-04-26T09:41:09.615Z,65.53
2023-04-26T09:42:13.948Z,65.24
2023-04-26T09:43:18.260Z,64.70
2023-04-26T09:44:22.521Z,64.88
2023-04-26T09:45:26.858Z,64.19
2023-04-26T09:46:31.056Z,64.18
2023-04-26T09:47:35.402Z,64.49
2023-04-26T09:48:39.687Z,64.81
2023-04-26T09:49:44.023Z,64.67
2023-04-26T09:50:48.239Z,63.92
2023-04-26T09:51:52.558Z,62.95
2023-04-26T09:52:56.828Z,62.60
2023-04-26T09:54:01.092Z,62.46
2023-04-26T09:55:05.441Z,62.47
2023-04-26T09:56:09.743Z,63.00
2023-04-26T09:57:13.972Z,63.25
2023-04-26T09:58:19.358Z,63.46
2023-04-26T09:59:23.133Z,63.80
2023-04-26T10:00:27.519Z,64.18
2023-04-26T10:01:31.725Z,64.58
2023-04-26T10:02:35.937Z,64.95
2023-04-26T10:03:40.428Z,64.79
2023-04-26T10:04:44.492Z,64.57
2023-04-26T10:05:48.868Z,64.39
2023-04-26T10:07:07.186Z,64.30
2023-04-26T10:08:10.398Z,63.58
2023-04-26T10:09:14.610Z,63.57
2023-04-26T10:10:18.947Z,63.52
2023-04-26T10:11:23.158Z,63.55
2023-04-26T10:12:27.427Z,63.58
2023-04-26T10:13:31.789Z,63.94
2023-04-26T10:14:36.026Z,64.51
2023-04-26T10:15:40.400Z,65.45
2023-04-26T10:16:44.639Z,65.54
2023-04-26T10:17:51.966Z,65.35
2023-04-26T10:18:53.249Z,64.87
2023-04-26T10:19:57.442Z,64.21
2023-04-26T10:21:01.680Z,63.64
2023-04-26T10:22:05.955Z,63.10
2023-04-26T10:23:10.266Z,62.91
2023-04-26T10:24:14.580Z,63.10
2023-04-26T10:25:18.809Z,63.32
2023-04-26T10:26:23.060Z,63.51
2023-04-26T10:27:27.434Z,63.99
2023-04-26T10:28:31.746Z,64.49
2023-04-26T10:29:35.952Z,64.87
2023-04-26T10:30:40.369Z,64.92
2023-04-26T10:31:44.673Z,65.19
2023-04-26T10:32:48.927Z,65.32
2023-04-26T10:33:53.197Z,64.80
2023-04-26T10:34:57.394Z,64.85
2023-04-26T10:36:01.630Z,64.71
2023-04-26T10:37:06.010Z,64.50
2023-04-26T10:38:10.463Z,64.59
2023-04-26T10:39:28.735Z,64.40
2023-04-26T10:40:31.734Z,64.18
2023-04-26T10:41:35.963Z,64.06
2023-04-26T10:42:41.570Z,64.25
2023-04-26T10:43:44.566Z,64.45
2023-04-26T10:44:48.932Z,64.23
2023-04-26T10:45:53.256Z,64.13
2023-04-26T10:46:57.421Z,63.48
2023-04-26T10:48:01.792Z,62.75
2023-04-26T10:49:05.962Z,62.45
2023-04-26T10:50:10.355Z,62.65
2023-04-26T10:51:14.511Z,62.64
2023-04-26T10:52:18.866Z,62.89
2023-04-26T10:53:23.114Z,63.20
2023-04-26T10:54:27.446Z,63.22
2023-04-26T10:55:31.643Z,62.84
2023-04-26T10:56:35.928Z,62.96
2023-04-26T10:57:40.198Z,62.96
2023-04-26T10:58:44.568Z,62.92
2023-04-26T10:59:54.591Z,62.60
2023-04-26T11:00:53.052Z,62.67
2023-04-26T11:01:57.321Z,62.37
2023-04-26T11:03:01.674Z,62.59
2023-04-26T11:04:05.936Z,62.58
2023-04-26T11:05:13.168Z,63.04
2023-04-26T11:06:16.533Z,62.93
2023-04-26T11:07:20.773Z,63.01
2023-04-26T11:08:25.068Z,63.24
2023-04-26T11:09:29.448Z,63.54
2023-04-26T11:10:35.154Z,63.42
2023-04-26T11:11:37.934Z,63.30
2023-04-26T11:12:42.330Z,63.23
2023-04-26T11:13:46.471Z,63.11
2023-04-26T11:15:04.743Z,63.33
2023-04-26T11:16:07.944Z,63.18
2023-04-26T11:17:12.084Z,63.41
2023-04-26T11:18:16.381Z,63.87
2023-04-26T11:19:20.585Z,64.16
2023-04-26T11:20:24.951Z,64.37
2023-04-26T11:21:29.280Z,64.14
2023-04-26T11:22:33.509Z,64.26
2023-04-26T11:23:37.779Z,64.02
2023-04-26T11:24:42.044Z,64.17
2023-04-26T11:25:46.307Z,63.84
2023-04-26T11:26:50.540Z,63.75
2023-04-26T11:27:54.953Z,63.45
2023-04-26T11:28:59.231Z,63.19
2023-04-26T11:30:03.534Z,63.03
2023-04-26T11:31:07.973Z,63.29
2023-04-26T11:32:12.140Z,63.33
2023-04-26T11:33:16.509Z,63.63
2023-04-26T11:34:20.896Z,63.03
2023-04-26T11:35:25.099Z,62.42
2023-04-26T11:36:29.463Z,61.85
2023-04-26T11:37:33.803Z,61.86
2023-04-26T11:38:38.143Z,60.97
2023-04-26T11:39:42.363Z,60.74
2023-04-26T11:40:46.690Z,60.68
2023-04-26T11:41:51.005Z,61.17
2023-04-26T11:42:55.299Z,60.96
2023-04-26T11:43:59.592Z,61.79
2023-04-26T11:45:03.883Z,61.54
2023-04-26T11:46:08.290Z,61.20
2023-04-26T11:47:12.648Z,60.73
2023-04-26T11:48:16.890Z,59.81
2023-04-26T11:49:21.167Z,59.02
2023-04-26T11:50:25.506Z,57.56
2023-04-26T11:51:30.649Z,58.39
2023-04-26T11:52:34.114Z,58.06
2023-04-26T11:53:38.577Z,57.44
2023-04-26T11:54:42.758Z,57.40
2023-04-26T11:55:47.061Z,56.57
2023-04-26T11:56:51.350Z,57.59
2023-04-26T11:57:55.713Z,57.76
2023-04-26T11:58:59.996Z,57.30
2023-04-26T12:00:04.296Z,56.15
2023-04-26T12:01:08.696Z,56.32
2023-04-26T12:02:13.137Z,56.04
2023-04-26T12:03:17.460Z,56.51
2023-04-26T12:04:21.602Z,56.51
2023-04-26T12:05:25.910Z,55.82
2023-04-26T12:06:30.123Z,56.25
2023-04-26T12:07:34.515Z,56.59
2023-04-26T12:08:38.800Z,56.68
2023-04-26T12:09:43.065Z,56.71
2023-04-26T12:10:47.298Z,57.14
2023-04-26T12:11:54.680Z,57.77
2023-04-26T12:12:58.147Z,58.07
2023-04-26T12:14:02.372Z,58.07
2023-04-26T12:16:33.973Z,58.55
2023-04-26T12:17:38.182Z,58.65
2023-04-26T12:18:42.540Z,58.97
2023-04-26T12:19:46.757Z,59.24
2023-04-26T12:20:51.067Z,59.45
2023-04-26T12:21:55.379Z,59.70
2023-04-26T12:22:59.685Z,59.95
2023-04-26T12:24:03.919Z,60.30
2023-04-26T12:25:08.255Z,60.86
2023-04-26T12:26:12.512Z,61.03
2023-04-26T12:27:16.779Z,61.42
2023-04-26T12:28:21.228Z,61.25
2023-04-26T12:29:25.452Z,60.74
2023-04-26T12:30:29.835Z,59.96
2023-04-26T12:31:34.142Z,59.65
2023-04-26T12:32:38.401Z,59.19
2023-04-26T12:33:42.775Z,58.49
2023-04-26T12:34:47.044Z,58.12
2023-04-26T12:35:51.336Z,57.67
2023-04-26T12:36:55.725Z,57.54
2023-04-26T12:38:00.149Z,58.10
2023-04-26T12:39:04.389Z,57.61
2023-04-26T12:40:08.646Z,57.53
2023-04-26T12:41:12.953Z,57.13
2023-04-26T12:42:17.269Z,56.00
2023-04-26T12:43:21.573Z,55.69
2023-04-26T12:44:25.878Z,55.88
2023-04-26T12:45:30.171Z,56.27
2023-04-26T12:46:34.586Z,56.88
2023-04-26T12:47:38.917Z,56.43
2023-04-26T12:48:43.169Z,55.87
2023-04-26T12:49:47.455Z,55.16
2023-04-26T12:50:51.858Z,55.11
2023-04-26T12:51:56.107Z,55.28
2023-04-26T12:53:00.582Z,55.59
2023-04-26T12:54:04.829Z,55.86
2023-04-26T12:55:09.072Z,55.12
2023-04-26T12:56:13.408Z,55.03
2023-04-26T12:57:17.710Z,54.89
2023-04-26T12:58:22.114Z,54.45
2023-04-26T12:59:26.515Z,54.63
2023-04-26T13:00:30.898Z,54.05
2023-04-26T13:01:35.185Z,53.17
2023-04-26T13:02:39.529Z,52.91
2023-04-26T13:03:44.039Z,53.21
2023-04-26T13:04:48.256Z,53.92
2023-04-26T13:05:52.456Z,53.81
2023-04-26T13:06:56.732Z,54.00
2023-04-26T13:09:28.075Z,55.07
2023-04-26T13:10:32.258Z,54.66
2023-04-26T13:11:36.538Z,54.66
2023-04-26T13:12:40.921Z,55.35
2023-04-26T13:13:45.387Z,55.89
2023-04-26T13:14:49.484Z,56.73
2023-04-26T13:15:53.930Z,57.37
2023-04-26T13:16:58.147Z,57.89
2023-04-26T13:18:02.476Z,58.30
2023-04-26T13:19:06.743Z,58.46
2023-04-26T13:20:14.069Z,58.58
2023-04-26T13:21:17.437Z,58.85
2023-04-26T13:22:21.758Z,58.87
2023-04-26T13:23:40.064Z,59.14
2023-04-26T13:24:43.135Z,59.30
2023-04-26T13:25:47.276Z,59.54
2023-04-26T13:26:51.529Z,59.57
2023-04-26T13:27:55.783Z,58.92
2023-04-26T13:29:00.036Z,58.29
2023-04-26T13:30:04.360Z,58.05
2023-04-26T13:31:08.681Z,57.90
2023-04-26T13:32:12.928Z,58.24
2023-04-26T13:33:17.420Z,58.13
2023-04-26T13:34:21.542Z,58.17
2023-04-26T13:35:25.842Z,58.41
2023-04-26T13:36:30.141Z,58.84
2023-04-26T13:37:34.549Z,58.79
2023-04-26T13:38:38.902Z,58.91
2023-04-26T13:39:43.204Z,59.10
2023-04-26T13:40:47.478Z,59.44
2023-04-26T13:41:51.823Z,59.70
2023-04-26T13:42:56.036Z,59.98
2023-04-26T13:44:00.347Z,60.17
2023-04-26T13:45:04.601Z,60.13
2023-04-26T13:46:08.991Z,59.53
2023-04-26T13:47:13.340Z,59.45
2023-04-26T13:48:18.102Z,59.10
2023-04-26T13:49:21.908Z,59.01
2023-04-26T13:50:40.310Z,58.99
2023-04-26T13:51:43.709Z,58.62
2023-04-26T13:52:47.946Z,58.35
2023-04-26T13:53:52.300Z,58.39
2023-04-26T13:54:56.657Z,58.40
2023-04-26T13:56:00.931Z,58.53
2023-04-26T13:57:05.182Z,58.51